Tobago, Trinidad and Tobago
Current Conditions -  °F | °C
As of 8:00 PM on Saturday 22 Nov 2014 (Local Time) from TTCP Reporting Station
Few Clouds Few Clouds  
Wind Chill: 79°   Ceiling: Unl
Heat Index: 82°   Visibility: 6mi
Dew Point: 75°   Wind: 6mph
Humidity: 89%   Direction: 60°ENE
Pressure: 29.88"   Gusts: NA
Location:  11.22°N, 60.67°W
Report Text: TTCP 230000Z 06005KT 9999 FEW016 26/24 Q1012 NOSIG
Loading
Personal Weather Stations






























Interactive Weather Map New forecast layout! Learn more

10-Day Weather Forecast

Advertisements
Track Severe Weather on mobile